Bookmark and Share
Track history (hours):
 

Leonie

Last reported at 2014-Apr-16 18:08 UTC. Time now 2014-Apr-17 04:01 UTC.
Position N 49°55' W 002°59'.

Length 90 m; draft 5.6 m.

Type: Cargo ship. MMSI: 244772000.

NotesDate/timePositionNaut miles runAvg speedWind from/ knotsBaromVisibWave heightAir tempDewpointWater temp
2014-Apr-16 18:08N 49°55' W 002°59'711.0
2014-Apr-16 17:32N 49°58' W 002°50'1512.4
2014-Apr-16 16:21N 50°02' W 002°28'1114.2
2014-Apr-16 15:33N 50°06' W 002°11'1615.7
2014-Apr-16 14:33N 50°11' W 001°48'1615.6
2014-Apr-16 13:33N 50°15' W 001°24'1414.5
2014-Apr-16 12:33N 50°19' W 001°03'1212.1
2014-Apr-16 11:32N 50°23' W 000°44'1010.2
2014-Apr-16 10:33N 50°26' W 000°29'12 9.5
2014-Apr-16 09:18N 50°30' W 000°12'9 9.5
2014-Apr-16 08:24N 50°32' E 000°02'910.3
2014-Apr-16 07:30N 50°35' E 000°15'1111.8
2014-Apr-16 06:33N 50°38' E 000°32'1312.9
2014-Apr-16 05:33N 50°45' E 000°49'1312.9
2014-Apr-16 04:33N 50°53' E 001°05'1212.1
2014-Apr-16 03:33N 51°01' E 001°20'1010.5
2014-Apr-16 02:33N 51°08' E 001°33'9 8.7
2014-Apr-16 01:33N 51°13' E 001°44'9 9.2
2014-Apr-16 00:34N 51°21' E 001°51'1110.6
2014-Apr-15 23:32N 51°30' E 001°60'1212.3
2014-Apr-15 22:32N 51°39' E 002°13'8711.9
2014-Apr-15 15:12N 52°47' E 003°43'6 9.6
2014-Apr-15 14:33N 52°52' E 003°50'10 5.2
2014-Apr-15 12:34N 52°59' E 004°02'1111.3
2014-Apr-15 11:33N 53°07' E 004°16'2411.8
2014-Apr-15 09:34N 53°27' E 004°37'1111.0
2014-Apr-15 08:34N 53°31' E 004°54'1010.1
2014-Apr-15 07:34N 53°35' E 005°10'9 9.3
2014-Apr-15 06:34N 53°38' E 005°25'9 9.0
2014-Apr-15 05:34N 53°41' E 005°39'56 9.4
2014-Apr-14 23:34N 53°56' E 007°11'9 8.6
2014-Apr-14 22:34N 53°58' E 007°25'8 7.9
2014-Apr-14 21:34N 54°00' E 007°38'7 6.9
2014-Apr-14 20:34N 54°01' E 007°50'6 6.1
2014-Apr-14 19:34N 54°01' E 007°60'6 6.0
2014-Apr-14 18:33N 54°01' E 008°10'6 6.4
2014-Apr-14 17:34N 54°00' E 008°21'1110.8
2014-Apr-14 16:34N 53°57' E 008°39'1212.1
2014-Apr-14 15:34N 53°51' E 008°56'8 7.9
2014-Apr-14 14:34N 53°54' E 009°09'2 1.7
2014-Apr-14 13:33N 53°55' E 009°11'16 8.2
2014-Apr-14 11:33N 54°10' E 009°24'4 4.2
2014-Apr-14 10:31N 54°11' E 009°30'8 7.8
2014-Apr-14 09:34N 54°17' E 009°39'58 5.3
2014-Apr-13 22:34N 54°35' E 011°14'10 9.8
2014-Apr-13 21:34N 54°31' E 011°29'1010.0
2014-Apr-13 20:34N 54°28' E 011°46'1010.2
2014-Apr-13 19:33N 54°26' E 012°03'10 9.2
2014-Apr-13 18:31N 54°34' E 012°14'1010.3
2014-Apr-13 17:33N 54°41' E 012°25'1111.3
2014-Apr-13 16:33N 54°47' E 012°42'1111.1
2014-Apr-13 15:33N 54°51' E 012°60'1311.0
2014-Apr-13 14:24N 54°55' E 013°21'911.1
2014-Apr-13 13:33N 54°59' E 013°36'1111.2
2014-Apr-13 12:33N 55°03' E 013°54'1110.7
2014-Apr-13 11:33N 55°09' E 014°09'1111.2
2014-Apr-13 10:33N 55°17' E 014°22'1111.2
2014-Apr-13 09:33N 55°26' E 014°34'1111.4
2014-Apr-13 08:33N 55°32' E 014°51'1111.4
2014-Apr-13 07:33N 55°38' E 015°09'1411.2
2014-Apr-13 06:20N 55°45' E 015°30'1011.1
2014-Apr-13 05:29N 55°49' E 015°44'1111.1
2014-Apr-13 04:29N 55°55' E 016°01'1011.1
2014-Apr-13 03:33N 56°00' E 016°17'  
2014-Apr-07 13:32N 55°38' E 015°21'1212.3
2014-Apr-07 12:33N 55°32' E 015°02'1312.5
2014-Apr-07 11:33N 55°26' E 014°43'1212.1
2014-Apr-07 10:33N 55°16' E 014°29'1212.3
2014-Apr-07 09:33N 55°07' E 014°16'1211.9
2014-Apr-07 08:32N 54°60' E 013°59'1212.4
2014-Apr-07 07:33N 54°55' E 013°39'1312.6
2014-Apr-07 06:31N 54°51' E 013°17'1212.5
2014-Apr-07 05:32N 54°47' E 012°57'1212.0
2014-Apr-07 04:30N 54°42' E 012°38'1111.9
2014-Apr-07 03:33N 54°35' E 012°23'1111.5
2014-Apr-07 02:33N 54°25' E 012°12'1211.5
2014-Apr-07 01:33N 54°24' E 011°52'1211.5
2014-Apr-07 00:33N 54°28' E 011°34'1211.8
2014-Apr-06 23:33N 54°34' E 011°16'  

Dump ship's entire track history

sailing weather and tide predictions

Leonie — PHLE — position and weather